createdAt,value
2024-02-28T00:00:59.042Z,78.77
2024-02-28T00:03:25.818Z,70.27
2024-02-28T00:05:52.394Z,77.60
2024-02-28T00:08:21.273Z,72.23
2024-02-28T00:10:48.003Z,74.73
2024-02-28T00:13:16.611Z,78.33
2024-02-28T00:15:43.316Z,78.73
2024-02-28T00:18:10.017Z,85.33
2024-02-28T00:20:36.637Z,88.13
2024-02-28T00:23:03.239Z,84.17
2024-02-28T00:25:29.876Z,77.57
2024-02-28T00:27:56.694Z,81.93
2024-02-28T00:30:23.339Z,80.87
2024-02-28T00:32:49.902Z,79.80
2024-02-28T00:35:16.517Z,79.07
2024-02-28T00:37:43.096Z,82.47
2024-02-28T00:40:10.296Z,87.73
2024-02-28T00:42:36.915Z,94.73
2024-02-28T00:45:04.097Z,96.83
2024-02-28T00:47:31.061Z,105.20
2024-02-28T00:49:57.631Z,92.00
2024-02-28T00:52:26.217Z,96.57
2024-02-28T00:54:52.882Z,85.80
2024-02-28T00:57:19.553Z,89.33
2024-02-28T00:59:46.309Z,91.77
2024-02-28T01:02:12.902Z,95.23
2024-02-28T01:04:41.015Z,105.50
2024-02-28T01:07:07.694Z,107.30
2024-02-28T01:09:34.381Z,92.83
2024-02-28T01:12:02.450Z,93.00
2024-02-28T01:14:28.981Z,81.73
2024-02-28T01:16:55.712Z,85.87
2024-02-28T01:19:22.351Z,87.43
2024-02-28T01:21:49.055Z,88.10
2024-02-28T01:24:15.903Z,88.60
2024-02-28T01:26:42.673Z,92.37
2024-02-28T01:29:09.267Z,86.03
2024-02-28T01:31:35.920Z,82.53
2024-02-28T01:34:02.511Z,83.27
2024-02-28T01:36:29.105Z,74.63
2024-02-28T01:38:55.658Z,79.70
2024-02-28T01:41:22.254Z,80.67
2024-02-28T01:43:49.110Z,74.97
2024-02-28T01:46:26.739Z,89.17
2024-02-28T01:48:55.241Z,97.17
2024-02-28T01:51:28.160Z,82.40
2024-02-28T01:53:55.731Z,85.90
2024-02-28T01:56:24.335Z,89.63
2024-02-28T01:58:51.178Z,79.03
2024-02-28T02:01:18.510Z,84.23
2024-02-28T02:03:51.100Z,82.93
2024-02-28T02:06:19.242Z,86.40
2024-02-28T02:08:46.917Z,81.10
2024-02-28T02:11:16.055Z,86.23
2024-02-28T02:13:52.646Z,86.30
2024-02-28T02:16:20.550Z,78.63
2024-02-28T02:18:48.555Z,85.03
2024-02-28T02:21:19.039Z,78.37
2024-02-28T02:23:45.589Z,83.80
2024-02-28T02:26:12.145Z,97.67
2024-02-28T02:28:38.644Z,129.17
2024-02-28T02:31:05.350Z,104.87
2024-02-28T02:33:31.964Z,187.77
2024-02-28T02:35:59.075Z,457.70
2024-02-28T02:38:25.695Z,117.60
2024-02-28T02:40:52.626Z,123.40
2024-02-28T02:43:19.381Z,280.70
2024-02-28T02:45:46.086Z,108.10
2024-02-28T02:48:12.678Z,104.90
2024-02-28T02:50:39.206Z,110.37
2024-02-28T02:53:11.582Z,96.77
2024-02-28T02:55:38.239Z,97.73
2024-02-28T02:58:04.907Z,95.87
2024-02-28T03:00:31.500Z,101.97
2024-02-28T03:02:58.097Z,88.03
2024-02-28T03:05:24.605Z,95.67
2024-02-28T03:07:51.193Z,97.10
2024-02-28T03:10:17.734Z,132.40
2024-02-28T03:12:44.305Z,114.13
2024-02-28T03:15:10.869Z,191.90
2024-02-28T03:17:37.473Z,122.73
2024-02-28T03:20:04.408Z,99.27
2024-02-28T03:22:30.943Z,99.57
2024-02-28T03:24:57.532Z,164.17
2024-02-28T03:27:24.168Z,160.00
2024-02-28T03:29:50.743Z,248.83
2024-02-28T03:32:17.376Z,223.47
2024-02-28T03:34:43.930Z,201.00
2024-02-28T03:37:10.446Z,215.77
2024-02-28T03:39:37.038Z,329.50
2024-02-28T03:42:03.880Z,246.00
2024-02-28T03:44:30.457Z,417.63
2024-02-28T03:46:57.100Z,219.83
2024-02-28T03:49:23.636Z,248.07
2024-02-28T03:51:50.285Z,362.97
2024-02-28T03:54:17.223Z,197.10
2024-02-28T03:56:43.812Z,244.93
2024-02-28T03:59:10.402Z,343.37
2024-02-28T04:01:37.018Z,309.93
2024-02-28T04:04:03.808Z,502.87
2024-02-28T04:06:31.351Z,361.20
2024-02-28T04:08:57.908Z,308.57
2024-02-28T04:11:25.162Z,224.70
2024-02-28T04:13:51.766Z,226.77
2024-02-28T04:16:18.325Z,92.00
2024-02-28T04:18:44.953Z,111.70
2024-02-28T04:21:11.646Z,93.77
2024-02-28T04:23:39.274Z,98.87
2024-02-28T04:26:05.835Z,81.23
2024-02-28T04:28:32.391Z,80.67
2024-02-28T04:30:59.019Z,80.50
2024-02-28T04:33:25.685Z,90.43
2024-02-28T04:35:52.201Z,89.60
2024-02-28T04:38:18.793Z,83.97
2024-02-28T04:40:45.695Z,85.23
2024-02-28T04:43:12.274Z,79.23
2024-02-28T04:45:38.862Z,93.57
2024-02-28T04:48:06.146Z,98.30
2024-02-28T04:50:32.867Z,91.77
2024-02-28T04:52:59.451Z,139.03
2024-02-28T04:55:26.038Z,113.63
2024-02-28T04:57:52.716Z,92.47
2024-02-28T05:00:19.453Z,83.13
2024-02-28T05:02:46.023Z,104.77
2024-02-28T05:05:12.596Z,87.87
2024-02-28T05:07:39.290Z,102.03
2024-02-28T05:10:06.583Z,85.70
2024-02-28T05:12:33.330Z,105.27
2024-02-28T05:14:59.949Z,88.70
2024-02-28T05:17:26.548Z,81.57
2024-02-28T05:19:53.109Z,75.90
2024-02-28T05:22:19.684Z,104.87
2024-02-28T05:24:49.428Z,169.10
2024-02-28T05:27:16.197Z,689.77
2024-02-28T05:29:43.914Z,524.47
2024-02-28T05:32:10.691Z,280.83
2024-02-28T05:34:37.263Z,263.37
2024-02-28T05:37:03.894Z,200.30
2024-02-28T05:39:31.955Z,266.80
2024-02-28T05:41:58.674Z,264.70
2024-02-28T05:44:25.723Z,450.67
2024-02-28T05:46:52.310Z,377.13
2024-02-28T05:49:18.828Z,267.60
2024-02-28T05:51:45.496Z,178.53
2024-02-28T05:54:12.074Z,198.20
2024-02-28T05:56:38.551Z,304.07
2024-02-28T05:59:05.104Z,602.47
2024-02-28T06:01:31.707Z,476.27
2024-02-28T06:03:58.259Z,486.43
2024-02-28T06:06:24.874Z,570.27
2024-02-28T06:08:51.414Z,392.07
2024-02-28T06:11:17.988Z,278.10
2024-02-28T06:13:44.624Z,608.30
2024-02-28T06:16:18.736Z,522.00
2024-02-28T06:18:45.933Z,528.20
2024-02-28T06:21:14.235Z,649.03
2024-02-28T06:23:40.848Z,411.87
2024-02-28T06:26:07.466Z,485.87
2024-02-28T06:28:33.967Z,698.87
2024-02-28T06:31:00.671Z,560.97
2024-02-28T06:33:27.404Z,356.50
2024-02-28T06:35:53.971Z,295.60
2024-02-28T06:38:20.477Z,292.50
2024-02-28T06:40:46.947Z,486.37
2024-02-28T06:43:13.546Z,419.43
2024-02-28T06:45:40.110Z,548.83
2024-02-28T06:48:08.228Z,603.13
2024-02-28T06:50:34.800Z,357.27
2024-02-28T06:53:01.332Z,372.63
2024-02-28T06:55:27.875Z,464.07
2024-02-28T06:57:54.557Z,493.97
2024-02-28T07:00:22.247Z,489.13
2024-02-28T07:02:48.796Z,521.77
2024-02-28T07:05:15.467Z,393.17
2024-02-28T07:07:42.097Z,387.40
2024-02-28T07:10:08.806Z,362.13
2024-02-28T07:12:35.426Z,262.07
2024-02-28T07:15:02.030Z,260.47
2024-02-28T07:17:28.598Z,238.70
2024-02-28T07:19:55.114Z,198.90
2024-02-28T07:22:22.355Z,444.20
2024-02-28T07:24:49.376Z,192.93
2024-02-28T07:27:17.028Z,382.93
2024-02-28T07:29:43.630Z,559.40
2024-02-28T07:32:10.153Z,253.40
2024-02-28T07:34:36.655Z,576.10
2024-02-28T07:37:03.619Z,444.63
2024-02-28T07:39:30.277Z,366.40
2024-02-28T07:41:57.120Z,355.37
2024-02-28T07:44:24.084Z,442.63
2024-02-28T07:46:52.210Z,263.43
2024-02-28T07:49:19.695Z,239.70
2024-02-28T07:51:46.795Z,387.77
2024-02-28T07:54:13.578Z,216.57
2024-02-28T07:56:40.192Z,227.83
2024-02-28T07:59:06.750Z,321.53
2024-02-28T08:01:33.774Z,323.67
2024-02-28T08:04:01.064Z,474.83
2024-02-28T08:06:27.866Z,262.87
2024-02-28T08:08:54.637Z,348.20
2024-02-28T08:11:21.344Z,231.37
2024-02-28T08:13:48.086Z,375.73
2024-02-28T08:16:14.776Z,234.00
2024-02-28T08:18:41.670Z,265.47
2024-02-28T08:21:08.311Z,353.80
2024-02-28T08:23:34.828Z,217.90
2024-02-28T08:26:01.351Z,430.10
2024-02-28T08:28:27.877Z,257.13
2024-02-28T08:30:54.482Z,247.57
2024-02-28T08:33:24.614Z,134.10
2024-02-28T08:35:52.736Z,85.37
2024-02-28T08:38:19.422Z,89.60
2024-02-28T08:40:46.880Z,97.33
2024-02-28T08:43:13.737Z,93.03
2024-02-28T08:45:40.591Z,116.83
2024-02-28T08:48:08.580Z,95.70
2024-02-28T08:50:35.345Z,99.70
2024-02-28T08:53:03.002Z,199.70
2024-02-28T08:55:30.318Z,122.37
2024-02-28T08:57:57.009Z,102.90
2024-02-28T09:00:23.785Z,86.43
2024-02-28T09:02:50.575Z,97.13
2024-02-28T09:05:17.218Z,102.77
2024-02-28T09:07:44.192Z,83.80
2024-02-28T09:10:12.175Z,90.27
2024-02-28T09:12:39.233Z,73.77
2024-02-28T09:15:06.316Z,87.90
2024-02-28T09:17:32.977Z,66.90
2024-02-28T09:20:02.122Z,73.87
2024-02-28T09:22:28.918Z,59.07
2024-02-28T09:24:55.550Z,60.93
2024-02-28T09:27:22.269Z,67.47
2024-02-28T09:29:48.848Z,62.70
2024-02-28T09:32:15.909Z,64.70
2024-02-28T09:34:42.975Z,63.80
2024-02-28T09:37:09.846Z,64.60
2024-02-28T09:39:39.891Z,69.47
2024-02-28T09:42:08.020Z,64.40
2024-02-28T09:44:35.726Z,67.37
2024-02-28T09:47:02.457Z,74.30
2024-02-28T09:49:32.053Z,79.77
2024-02-28T09:51:59.764Z,72.93
2024-02-28T09:54:26.834Z,74.00
2024-02-28T09:56:53.386Z,72.80
2024-02-28T09:59:21.910Z,67.57
2024-02-28T10:01:59.037Z,70.33
2024-02-28T10:04:27.181Z,67.90
2024-02-28T10:06:53.710Z,71.00
2024-02-28T10:09:20.283Z,63.33
2024-02-28T10:11:49.820Z,64.50
2024-02-28T10:14:20.312Z,59.67
2024-02-28T10:16:47.012Z,58.60
2024-02-28T10:19:14.058Z,62.40
2024-02-28T10:21:40.901Z,62.13
2024-02-28T10:24:07.718Z,60.97
2024-02-28T10:26:43.009Z,69.03
2024-02-28T10:29:12.079Z,60.57
2024-02-28T10:31:38.834Z,60.53
2024-02-28T10:34:06.662Z,63.90
2024-02-28T10:36:33.925Z,58.27
2024-02-28T10:39:01.487Z,57.87
2024-02-28T10:41:29.379Z,58.17
2024-02-28T10:43:55.950Z,52.93
2024-02-28T10:46:35.185Z,55.13
2024-02-28T10:49:03.961Z,58.60
2024-02-28T10:51:35.165Z,57.53
2024-02-28T10:54:13.656Z,51.17
2024-02-28T10:56:42.687Z,50.97
2024-02-28T10:59:12.391Z,48.90
2024-02-28T11:01:45.455Z,52.10
2024-02-28T11:04:16.250Z,47.00
2024-02-28T11:06:54.933Z,44.37
2024-02-28T11:09:28.669Z,41.43
2024-02-28T11:11:56.905Z,39.73
2024-02-28T11:14:26.547Z,37.47
2024-02-28T11:17:04.132Z,40.63
2024-02-28T11:19:32.617Z,37.63
2024-02-28T11:22:04.829Z,36.60
2024-02-28T11:24:34.409Z,37.17
2024-02-28T11:27:03.366Z,36.53
2024-02-28T11:29:30.367Z,38.23
2024-02-28T11:31:57.060Z,35.40
2024-02-28T11:34:23.809Z,40.03
2024-02-28T11:36:51.652Z,37.87
2024-02-28T11:39:19.110Z,35.40
2024-02-28T11:41:49.782Z,39.30
2024-02-28T11:44:17.835Z,34.07
2024-02-28T11:46:45.956Z,33.63
2024-02-28T11:49:13.788Z,33.23
2024-02-28T11:51:44.579Z,34.53
2024-02-28T11:54:12.449Z,34.00
2024-02-28T11:56:42.883Z,35.20
2024-02-28T11:59:12.728Z,33.67
2024-02-28T12:01:41.662Z,31.47
2024-02-28T12:04:08.660Z,33.57
2024-02-28T12:06:35.851Z,33.20
2024-02-28T12:09:02.650Z,30.63
2024-02-28T12:11:31.254Z,30.10
2024-02-28T12:13:57.878Z,32.23
2024-02-28T12:16:26.603Z,33.03
2024-02-28T12:18:53.733Z,30.63
2024-02-28T12:21:21.615Z,27.40
2024-02-28T12:23:51.535Z,26.90
2024-02-28T12:26:19.966Z,24.70
2024-02-28T12:28:46.635Z,26.83
2024-02-28T12:31:14.344Z,23.53
2024-02-28T12:33:41.292Z,26.00
2024-02-28T12:36:08.194Z,24.07
2024-02-28T12:38:34.899Z,26.50
2024-02-28T12:41:01.611Z,26.23
2024-02-28T12:43:28.785Z,23.80
2024-02-28T12:45:55.405Z,25.77
2024-02-28T12:48:22.797Z,22.33
2024-02-28T12:50:49.648Z,24.43
2024-02-28T12:53:16.211Z,25.03
2024-02-28T12:55:43.097Z,25.47
2024-02-28T12:58:09.708Z,24.43
2024-02-28T13:00:36.550Z,21.60
2024-02-28T13:03:04.301Z,21.63
2024-02-28T13:05:32.217Z,22.03
2024-02-28T13:07:59.067Z,18.57
2024-02-28T13:10:26.994Z,18.13
2024-02-28T13:12:53.863Z,20.73
2024-02-28T13:15:20.564Z,19.00
2024-02-28T13:17:50.685Z,17.87
2024-02-28T13:20:17.679Z,19.37
2024-02-28T13:22:44.315Z,19.50
2024-02-28T13:25:12.558Z,22.90
2024-02-28T13:27:39.176Z,21.40
2024-02-28T13:30:06.462Z,19.73
2024-02-28T13:32:33.351Z,21.63
2024-02-28T13:35:00.938Z,23.67
2024-02-28T13:37:27.475Z,20.53
2024-02-28T13:39:54.144Z,19.07
2024-02-28T13:42:25.551Z,18.77
2024-02-28T13:44:52.661Z,16.27
2024-02-28T13:47:19.213Z,15.23
2024-02-28T13:49:46.045Z,16.63
2024-02-28T13:52:12.681Z,15.27
2024-02-28T13:54:39.285Z,11.47
2024-02-28T13:57:07.357Z,14.80
2024-02-28T13:59:35.303Z,14.30
2024-02-28T14:02:02.286Z,12.23
2024-02-28T14:04:28.957Z,13.17
2024-02-28T14:06:55.524Z,14.60
2024-02-28T14:09:22.037Z,16.50
2024-02-28T14:11:48.618Z,10.37
2024-02-28T14:14:15.277Z,10.40
2024-02-28T14:16:41.902Z,10.50
2024-02-28T14:19:08.568Z,8.30
2024-02-28T14:21:35.185Z,10.00
2024-02-28T14:24:01.763Z,9.90
2024-02-28T14:26:28.728Z,10.40
2024-02-28T14:28:56.689Z,11.60
2024-02-28T14:31:24.325Z,10.03
2024-02-28T14:33:51.298Z,9.07
2024-02-28T14:36:18.101Z,10.47
2024-02-28T14:38:45.507Z,9.90
2024-02-28T14:41:12.906Z,11.10
2024-02-28T14:43:40.112Z,8.50
2024-02-28T14:46:08.317Z,8.53
2024-02-28T14:48:34.946Z,9.57
2024-02-28T14:51:03.441Z,10.70
2024-02-28T14:53:30.097Z,18.23
2024-02-28T14:55:56.731Z,8.33
2024-02-28T14:58:23.267Z,11.13
2024-02-28T15:00:50.599Z,9.20
2024-02-28T15:03:17.635Z,8.47
2024-02-28T15:05:45.180Z,9.37
2024-02-28T15:08:11.878Z,8.43
2024-02-28T15:10:38.446Z,10.60
2024-02-28T15:13:05.215Z,8.33
2024-02-28T15:15:32.022Z,8.53
2024-02-28T15:17:59.649Z,8.23
2024-02-28T15:20:26.256Z,8.40
2024-02-28T15:22:52.824Z,7.70
2024-02-28T15:25:19.353Z,8.40
2024-02-28T15:27:45.920Z,8.87
2024-02-28T15:30:13.031Z,8.37
2024-02-28T15:32:40.771Z,9.17
2024-02-28T15:35:09.130Z,8.00
2024-02-28T15:37:36.461Z,8.50
2024-02-28T15:40:07.611Z,7.73
2024-02-28T15:42:34.876Z,7.07
2024-02-28T15:45:01.452Z,8.30
2024-02-28T15:47:29.511Z,6.43
2024-02-28T15:49:57.238Z,4.93
2024-02-28T15:52:23.931Z,3.93
2024-02-28T15:54:50.582Z,4.20
2024-02-28T15:57:17.151Z,3.30
2024-02-28T15:59:43.697Z,3.30
2024-02-28T16:02:11.068Z,3.37
2024-02-28T16:04:38.339Z,2.90
2024-02-28T16:07:04.966Z,2.80
2024-02-28T16:09:31.690Z,4.80
2024-02-28T16:11:58.255Z,2.70
2024-02-28T16:14:25.297Z,1.70
2024-02-28T16:16:51.843Z,4.77
2024-02-28T16:19:22.863Z,2.87
2024-02-28T16:21:54.097Z,3.93
2024-02-28T16:24:20.811Z,1.90
2024-02-28T16:26:47.349Z,1.40
2024-02-28T16:29:13.853Z,1.27
2024-02-28T16:31:40.362Z,2.57
2024-02-28T16:34:06.910Z,2.53
2024-02-28T16:36:33.532Z,1.87
2024-02-28T16:39:00.110Z,1.77
2024-02-28T16:41:26.606Z,1.30
2024-02-28T16:43:56.173Z,1.83
2024-02-28T16:46:22.853Z,2.43
2024-02-28T16:48:49.484Z,2.20
2024-02-28T16:51:16.139Z,2.87
2024-02-28T16:53:42.629Z,2.07
2024-02-28T16:56:09.127Z,2.07
2024-02-28T16:58:40.955Z,2.03
2024-02-28T17:01:08.598Z,2.70
2024-02-28T17:03:35.766Z,3.20
2024-02-28T17:06:02.765Z,5.40
2024-02-28T17:08:29.267Z,5.43
2024-02-28T17:10:56.192Z,9.93
2024-02-28T17:13:22.963Z,10.13
2024-02-28T17:15:54.931Z,10.40
2024-02-28T17:18:22.328Z,10.53
2024-02-28T17:20:49.050Z,31.60
2024-02-28T17:23:15.637Z,38.13
2024-02-28T17:25:42.242Z,25.50
2024-02-28T17:28:08.918Z,25.60
2024-02-28T17:30:35.515Z,25.17
2024-02-28T17:33:02.495Z,26.50
2024-02-28T17:35:29.662Z,27.27
2024-02-28T17:37:56.360Z,21.73
2024-02-28T17:40:22.857Z,19.77
2024-02-28T17:42:49.394Z,20.20
2024-02-28T17:45:16.000Z,23.03
2024-02-28T17:47:42.609Z,25.03
2024-02-28T17:50:11.640Z,21.87
2024-02-28T17:52:40.917Z,26.83
2024-02-28T17:55:09.880Z,32.80
2024-02-28T17:57:36.660Z,33.23
2024-02-28T18:00:07.695Z,29.40
2024-02-28T18:02:34.502Z,35.97
2024-02-28T18:05:01.035Z,36.17
2024-02-28T18:07:27.678Z,13.07
2024-02-28T18:09:54.225Z,9.50
2024-02-28T18:12:20.819Z,25.90
2024-02-28T18:14:47.333Z,13.20
2024-02-28T18:17:14.269Z,11.20
2024-02-28T18:19:40.797Z,15.63
2024-02-28T18:22:09.934Z,30.53
2024-02-28T18:24:37.972Z,14.67
2024-02-28T18:27:09.825Z,9.70
2024-02-28T18:29:37.013Z,7.63
2024-02-28T18:32:04.456Z,17.53
2024-02-28T18:34:30.978Z,12.40
2024-02-28T18:36:57.951Z,18.87
2024-02-28T18:39:25.964Z,17.27
2024-02-28T18:41:56.248Z,22.53
2024-02-28T18:44:22.735Z,10.87
2024-02-28T18:46:49.339Z,14.33
2024-02-28T18:49:16.051Z,26.60
2024-02-28T18:51:42.738Z,22.07
2024-02-28T18:54:09.412Z,13.30
2024-02-28T18:56:36.059Z,10.33
2024-02-28T18:59:02.830Z,12.37
2024-02-28T19:01:29.476Z,11.50
2024-02-28T19:03:56.797Z,8.17
2024-02-28T19:06:25.628Z,10.17
2024-02-28T19:08:56.679Z,9.33
2024-02-28T19:11:23.419Z,9.80
2024-02-28T19:13:51.134Z,9.53
2024-02-28T19:16:19.531Z,10.43
2024-02-28T19:18:46.215Z,9.03
2024-02-28T19:21:12.806Z,9.13
2024-02-28T19:23:41.603Z,12.77
2024-02-28T19:26:08.285Z,14.27
2024-02-28T19:28:34.935Z,10.23
2024-02-28T19:31:02.663Z,11.73
2024-02-28T19:33:29.423Z,11.33
2024-02-28T19:35:55.958Z,11.83
2024-02-28T19:38:22.824Z,11.77
2024-02-28T19:40:49.345Z,12.17
2024-02-28T19:43:15.975Z,10.60
2024-02-28T19:45:42.759Z,9.90
2024-02-28T19:48:09.508Z,10.30
2024-02-28T19:50:36.256Z,11.90
2024-02-28T19:53:04.092Z,10.60
2024-02-28T19:55:30.785Z,12.30
2024-02-28T19:57:57.380Z,10.43
2024-02-28T20:00:24.012Z,10.87
2024-02-28T20:02:50.574Z,11.50
2024-02-28T20:05:20.297Z,16.83
2024-02-28T20:07:48.767Z,14.90
2024-02-28T20:10:16.455Z,13.17
2024-02-28T20:12:43.179Z,10.50
2024-02-28T20:15:10.068Z,12.43
2024-02-28T20:17:36.724Z,12.40
2024-02-28T20:20:04.595Z,11.17
2024-02-28T20:22:31.117Z,10.23
2024-02-28T20:24:57.899Z,10.10
2024-02-28T20:27:24.832Z,10.33
2024-02-28T20:29:51.425Z,9.60
2024-02-28T20:32:18.289Z,13.93
2024-02-28T20:34:45.285Z,17.20
2024-02-28T20:37:12.026Z,19.97
2024-02-28T20:39:38.807Z,16.40
2024-02-28T20:42:05.933Z,14.63
2024-02-28T20:44:32.550Z,13.10
2024-02-28T20:46:59.667Z,12.70
2024-02-28T20:49:26.711Z,12.43
2024-02-28T20:51:53.421Z,11.47
2024-02-28T20:54:20.333Z,12.07
2024-02-28T20:56:46.918Z,14.93
2024-02-28T20:59:13.591Z,12.90
2024-02-28T21:01:40.565Z,12.93
2024-02-28T21:04:07.966Z,12.63
2024-02-28T21:06:34.667Z,11.00
2024-02-28T21:09:01.538Z,10.47
2024-02-28T21:11:28.649Z,11.67
2024-02-28T21:13:56.468Z,11.80
2024-02-28T21:16:23.739Z,11.40
2024-02-28T21:18:55.244Z,15.70
2024-02-28T21:21:28.189Z,18.13
2024-02-28T21:23:55.010Z,26.90
2024-02-28T21:26:21.685Z,26.90
2024-02-28T21:28:48.208Z,37.67
2024-02-28T21:31:14.916Z,34.67
2024-02-28T21:33:41.475Z,34.33
2024-02-28T21:36:08.727Z,25.20
2024-02-28T21:38:36.821Z,16.10
2024-02-28T21:41:03.456Z,15.23
2024-02-28T21:43:29.953Z,15.83
2024-02-28T21:45:56.646Z,10.43
2024-02-28T21:48:23.392Z,11.37
2024-02-28T21:50:49.928Z,11.33
2024-02-28T21:53:16.444Z,10.87
2024-02-28T21:55:44.078Z,11.67
2024-02-28T21:58:11.017Z,13.20
2024-02-28T22:00:37.882Z,14.37
2024-02-28T22:03:04.793Z,14.40
2024-02-28T22:05:31.588Z,13.23
2024-02-28T22:07:58.541Z,13.10
2024-02-28T22:10:25.239Z,14.40
2024-02-28T22:12:51.915Z,15.73
2024-02-28T22:15:18.862Z,12.50
2024-02-28T22:17:45.382Z,11.87
2024-02-28T22:20:12.165Z,13.67
2024-02-28T22:22:38.699Z,14.93
2024-02-28T22:25:06.035Z,13.53
2024-02-28T22:27:32.710Z,14.77
2024-02-28T22:30:00.315Z,15.30
2024-02-28T22:32:27.403Z,18.10
2024-02-28T22:34:54.044Z,19.20
2024-02-28T22:37:20.580Z,18.90
2024-02-28T22:39:47.733Z,14.70
2024-02-28T22:42:14.249Z,17.33
2024-02-28T22:44:41.170Z,14.67
2024-02-28T22:47:07.711Z,17.70
2024-02-28T22:49:34.636Z,18.30
2024-02-28T22:52:01.200Z,23.07
2024-02-28T22:54:27.845Z,15.47
2024-02-28T22:56:54.657Z,15.67
2024-02-28T22:59:21.727Z,18.53
2024-02-28T23:01:49.233Z,17.37
2024-02-28T23:04:17.364Z,14.90
2024-02-28T23:06:43.993Z,19.60
2024-02-28T23:09:11.376Z,17.67
2024-02-28T23:11:38.852Z,19.90
2024-02-28T23:14:08.450Z,20.10
2024-02-28T23:16:37.964Z,18.77
2024-02-28T23:19:04.634Z,21.60
2024-02-28T23:21:31.262Z,16.73
2024-02-28T23:23:58.724Z,18.17
2024-02-28T23:26:25.220Z,14.20
2024-02-28T23:28:51.718Z,16.07
2024-02-28T23:31:18.837Z,16.87
2024-02-28T23:33:45.423Z,20.10
2024-02-28T23:36:11.964Z,15.47
2024-02-28T23:38:38.461Z,16.60
2024-02-28T23:41:05.269Z,13.97
2024-02-28T23:43:31.757Z,15.40
2024-02-28T23:45:58.272Z,17.37
2024-02-28T23:48:24.826Z,17.80
2024-02-28T23:50:54.307Z,16.90
2024-02-28T23:53:20.920Z,17.53
2024-02-28T23:55:47.474Z,21.60
2024-02-28T23:58:14.445Z,19.30
